Time;durP1;ratioP1;P1;durP2;ratioP2;P2;SDS_P1;SDS_P2;PMS_P1;PMS_P2;Temp;Humidity;BMP_temperature;BMP_pressure;BME280_temperature;BME280_humidity;BME280_pressure;Samples;Min_cycle;Max_cycle;Signal;HPM_P1;HPM_P2
2023/01/21 00:00:23;;;;;;;0.90;0.90;;;-0.70;99.90;;;;;;4991369;27;20049;-86
2023/01/21 00:02:49;;;;;;;0.90;0.90;;;-0.70;99.90;;;;;;5028110;27;20933;-86
2023/01/21 00:05:15;;;;;;;0.90;0.90;;;-0.60;99.90;;;;;;5026161;27;20055;-86
2023/01/21 00:07:41;;;;;;;0.90;0.90;;;-0.70;99.90;;;;;;5025794;27;20179;-86
2023/01/21 00:10:07;;;;;;;0.90;0.90;;;-0.70;99.90;;;;;;5019567;27;20856;-86
2023/01/21 00:12:33;;;;;;;0.80;0.80;;;-0.60;99.90;;;;;;5025101;27;20471;-87
2023/01/21 00:14:58;;;;;;;0.90;0.90;;;-0.80;99.90;;;;;;5025552;27;20043;-87
2023/01/21 00:17:24;;;;;;;1.00;1.00;;;-0.70;99.90;;;;;;5004440;27;20575;-87
2023/01/21 00:19:52;;;;;;;0.80;0.80;;;-0.70;99.90;;;;;;5022983;27;20034;-87
2023/01/21 00:22:18;;;;;;;0.80;0.80;;;-0.60;99.90;;;;;;5030417;27;20043;-87
2023/01/21 00:24:44;;;;;;;0.90;0.90;;;-0.60;99.90;;;;;;5003538;27;20035;-87
2023/01/21 00:27:10;;;;;;;0.90;0.90;;;-0.70;99.90;;;;;;5041471;27;20039;-87
2023/01/21 00:29:36;;;;;;;0.90;0.90;;;-0.70;99.90;;;;;;5004992;27;20154;-87
2023/01/21 00:32:01;;;;;;;0.90;0.90;;;-0.70;99.90;;;;;;5046052;27;20400;-86
2023/01/21 00:34:30;;;;;;;0.90;0.90;;;-0.70;99.90;;;;;;5011736;27;20123;-87
2023/01/21 00:36:55;;;;;;;0.90;0.90;;;-0.70;99.90;;;;;;5040439;27;20773;-87
2023/01/21 00:39:21;;;;;;;0.80;0.80;;;-0.70;99.90;;;;;;5043574;27;20053;-86
2023/01/21 00:41:47;;;;;;;0.80;0.80;;;-0.60;99.90;;;;;;5023863;27;20051;-87
2023/01/21 00:44:13;;;;;;;0.88;0.88;;;-0.70;99.90;;;;;;5007547;27;20043;-87
2023/01/21 00:46:38;;;;;;;0.85;0.85;;;-0.80;99.90;;;;;;5041014;27;20051;-88
2023/01/21 00:49:04;;;;;;;0.80;0.80;;;-0.60;99.90;;;;;;5018650;27;20039;-87
2023/01/21 00:51:30;;;;;;;0.80;0.80;;;-0.70;99.90;;;;;;5044873;27;20047;-87
2023/01/21 00:53:56;;;;;;;0.80;0.80;;;-0.70;99.90;;;;;;5028789;27;20471;-88
2023/01/21 00:56:22;;;;;;;0.80;0.80;;;-0.80;99.90;;;;;;5033171;27;20103;-88
2023/01/21 00:58:48;;;;;;;0.80;0.80;;;-0.80;99.90;;;;;;5042745;27;20267;-88
2023/01/21 01:01:20;;;;;;;0.80;0.80;;;-0.80;99.90;;;;;;5004022;27;20521;-88
2023/01/21 01:03:48;;;;;;;0.80;0.80;;;-0.70;99.90;;;;;;5048967;27;20070;-88
2023/01/21 01:06:17;;;;;;;0.80;0.80;;;-0.80;99.90;;;;;;5029963;27;20518;-87
2023/01/21 01:08:44;;;;;;;0.88;0.88;;;-0.80;99.90;;;;;;5044382;27;20394;-87
2023/01/21 01:11:11;;;;;;;0.80;0.80;;;-0.80;99.90;;;;;;5029547;27;20053;-87
2023/01/21 01:13:36;;;;;;;0.80;0.80;;;-0.80;99.90;;;;;;5045904;27;20112;-89
2023/01/21 01:16:05;;;;;;;0.90;0.90;;;-0.80;99.90;;;;;;5044709;27;20046;-87
2023/01/21 01:18:37;;;;;;;0.80;0.80;;;-1.00;99.90;;;;;;5052246;27;20051;-88
2023/01/21 01:21:04;;;;;;;0.80;0.80;;;-0.90;99.90;;;;;;5036745;27;20120;-87
2023/01/21 01:23:30;;;;;;;0.80;0.80;;;-0.80;99.90;;;;;;5026853;27;20042;-86
2023/01/21 01:26:02;;;;;;;0.80;0.80;;;-1.00;99.90;;;;;;5047326;27;20042;-87
2023/01/21 01:28:30;;;;;;;0.80;0.80;;;-1.00;99.90;;;;;;5026919;27;20951;-87
2023/01/21 01:30:57;;;;;;;0.88;0.88;;;-1.00;99.90;;;;;;5028263;27;21028;-88
2023/01/21 01:33:23;;;;;;;0.80;0.80;;;-0.90;99.90;;;;;;5026148;27;21058;-88
2023/01/21 01:35:49;;;;;;;0.90;0.90;;;-0.90;99.90;;;;;;5049097;27;20039;-88
2023/01/21 01:38:21;;;;;;;0.80;0.80;;;-0.90;99.90;;;;;;5021722;27;20039;-88
2023/01/21 01:40:48;;;;;;;0.82;0.82;;;-0.60;99.90;;;;;;5049937;27;20059;-88
2023/01/21 01:43:17;;;;;;;0.90;0.90;;;-0.60;99.90;;;;;;5038575;27;20047;-88
2023/01/21 01:45:43;;;;;;;0.80;0.80;;;-0.60;99.90;;;;;;5043916;27;20547;-88
2023/01/21 01:48:13;;;;;;;0.90;0.90;;;-0.50;99.90;;;;;;5024580;27;20833;-88
2023/01/21 01:50:42;;;;;;;0.80;0.80;;;-0.50;99.90;;;;;;5029359;27;20067;-89
2023/01/21 01:53:11;;;;;;;0.80;0.80;;;-0.20;99.90;;;;;;5024468;27;20039;-88
2023/01/21 01:55:38;;;;;;;0.80;0.80;;;-0.40;99.90;;;;;;5039530;27;20601;-88
2023/01/21 01:58:07;;;;;;;0.82;0.82;;;-0.30;99.90;;;;;;5029145;27;20129;-88
2023/01/21 02:00:36;;;;;;;0.80;0.80;;;-0.30;99.90;;;;;;5046183;27;20286;-88
2023/01/21 02:05:50;;;;;;;0.80;0.80;;;-0.30;99.90;;;;;;5054766;27;20043;-88
2023/01/21 02:08:17;;;;;;;0.90;0.90;;;-0.20;99.90;;;;;;5027716;27;20247;-88
2023/01/21 02:10:42;;;;;;;0.80;0.80;;;0.00;99.90;;;;;;5032715;27;20063;-88
2023/01/21 02:13:08;;;;;;;0.80;0.80;;;-0.20;99.90;;;;;;5015569;27;20061;-89
2023/01/21 02:15:49;;;;;;;0.80;0.80;;;-0.10;99.90;;;;;;5027815;27;20453;-88
2023/01/21 02:18:24;;;;;;;0.80;0.80;;;-0.10;99.90;;;;;;5033992;27;20043;-88
2023/01/21 02:21:15;;;;;;;0.80;0.80;;;-0.10;99.90;;;;;;5033014;27;20049;-88
2023/01/21 02:24:10;;;;;;;0.80;0.80;;;-0.10;99.90;;;;;;5029534;27;20521;-88
2023/01/21 02:26:54;;;;;;;0.80;0.80;;;0.00;99.90;;;;;;5036098;27;20047;-88
2023/01/21 02:29:20;;;;;;;;;;;-0.10;99.90;;;;;;5037865;27;20275;-89
2023/01/21 02:32:26;;;;;;;0.80;0.80;;;-0.10;99.90;;;;;;5038515;27;19992;-88
2023/01/21 02:35:23;;;;;;;0.80;0.80;;;0.20;99.90;;;;;;4998203;27;20050;-90
2023/01/21 02:38:12;;;;;;;0.80;0.80;;;-0.10;99.90;;;;;;5049364;27;20382;-90
2023/01/21 02:41:04;;;;;;;0.80;0.80;;;-0.20;99.90;;;;;;5029424;27;20090;-89
2023/01/21 02:43:49;;;;;;;0.80;0.80;;;0.00;99.90;;;;;;5027240;27;20062;-89
2023/01/21 02:46:21;;;;;;;0.90;0.90;;;0.00;99.90;;;;;;5035917;27;20072;-87
2023/01/21 02:48:55;;;;;;;0.80;0.80;;;0.10;99.90;;;;;;5049192;27;20139;-87
2023/01/21 02:51:22;;;;;;;0.80;0.80;;;-0.10;99.90;;;;;;5050191;27;20079;-90
2023/01/21 02:53:48;;;;;;;0.80;0.80;;;0.10;99.90;;;;;;5048493;27;20047;-87
2023/01/21 02:56:17;;;;;;;0.90;0.90;;;0.10;99.90;;;;;;5031174;27;20464;-87
2023/01/21 02:59:06;;;;;;;0.80;0.80;;;-0.10;99.90;;;;;;5028729;27;20792;-88
2023/01/21 03:01:34;;;;;;;0.90;0.90;;;-0.10;99.90;;;;;;5032092;27;20596;-86
2023/01/21 03:04:15;;;;;;;0.80;0.80;;;-0.10;99.90;;;;;;5051466;27;20616;-87
2023/01/21 03:07:15;;;;;;;0.80;0.80;;;0.10;99.90;;;;;;5034053;27;20854;-89
2023/01/21 03:09:41;;;;;;;0.90;0.90;;;0.00;99.90;;;;;;5043003;27;20087;-88
2023/01/21 03:12:07;;;;;;;0.80;0.80;;;0.00;99.90;;;;;;5030385;27;20970;-89
2023/01/21 03:18:24;;;;;;;0.80;0.80;;;-0.10;99.90;;;;;;5053948;27;20238;-88
2023/01/21 03:20:58;;;;;;;0.90;0.90;;;0.00;99.90;;;;;;5036191;27;20348;-89
2023/01/21 03:23:35;;;;;;;0.80;0.80;;;0.00;99.90;;;;;;5052792;27;20044;-89
2023/01/21 03:26:02;;;;;;;0.80;0.80;;;0.10;99.90;;;;;;5036199;27;20832;-88
2023/01/21 03:28:31;;;;;;;0.80;0.80;;;0.20;99.90;;;;;;5053474;27;20043;-88
2023/01/21 03:31:08;;;;;;;0.82;0.82;;;0.10;99.90;;;;;;5031482;27;20142;-89
2023/01/21 03:33:38;;;;;;;0.80;0.80;;;0.10;99.90;;;;;;5041150;27;20048;-88
2023/01/21 03:36:13;;;;;;;0.82;0.82;;;0.00;99.90;;;;;;5033993;27;20900;-88
2023/01/21 03:38:47;;;;;;;0.80;0.80;;;0.10;99.90;;;;;;5032125;27;20865;-88
2023/01/21 03:41:20;;;;;;;0.80;0.80;;;0.00;99.90;;;;;;5046595;27;20055;-88
2023/01/21 03:43:46;;;;;;;0.90;0.90;;;0.10;99.90;;;;;;5050810;27;20570;-89
2023/01/21 03:46:32;;;;;;;0.90;0.90;;;0.00;99.90;;;;;;5039818;27;20071;-88
2023/01/21 03:49:19;;;;;;;0.80;0.80;;;0.20;99.90;;;;;;5052475;27;20087;-88
2023/01/21 03:51:52;;;;;;;0.90;0.90;;;0.30;99.90;;;;;;5032098;27;20043;-88
2023/01/21 03:54:18;;;;;;;0.90;0.90;;;0.00;99.90;;;;;;5056087;27;20589;-88
2023/01/21 03:56:44;;;;;;;0.80;0.80;;;0.40;99.90;;;;;;5041124;27;20078;-88
2023/01/21 03:59:10;;;;;;;0.80;0.80;;;0.40;99.90;;;;;;5044074;27;20131;-88
2023/01/21 04:01:40;;;;;;;0.90;0.90;;;0.40;99.90;;;;;;5024446;27;20571;-88
2023/01/21 04:04:07;;;;;;;0.90;0.90;;;0.20;99.90;;;;;;5025184;27;20954;-88
2023/01/21 04:06:34;;;;;;;0.90;0.90;;;0.30;99.90;;;;;;5034722;27;20096;-87
2023/01/21 04:09:00;;;;;;;0.90;0.90;;;0.50;99.90;;;;;;5018904;27;20473;-88
2023/01/21 04:11:28;;;;;;;0.80;0.80;;;0.30;99.90;;;;;;5005268;27;20039;-89
2023/01/21 04:13:54;;;;;;;0.90;0.90;;;0.50;99.90;;;;;;5026681;27;20130;-88
2023/01/21 04:16:23;;;;;;;0.80;0.80;;;0.60;99.90;;;;;;5026065;27;20043;-88
2023/01/21 04:18:49;;;;;;;0.85;0.85;;;0.40;99.90;;;;;;5045727;27;20047;-89
2023/01/21 04:21:15;;;;;;;0.80;0.80;;;0.60;99.90;;;;;;5057719;27;20035;-88
2023/01/21 04:23:40;;;;;;;0.80;0.80;;;0.60;99.90;;;;;;5027295;27;20502;-88
2023/01/21 04:26:06;;;;;;;0.80;0.80;;;0.60;99.90;;;;;;5051170;27;20039;-89
2023/01/21 04:28:32;;;;;;;0.80;0.80;;;0.40;99.90;;;;;;5033908;27;20044;-88
2023/01/21 04:30:58;;;;;;;0.80;0.80;;;0.70;99.90;;;;;;5021857;27;20054;-88
2023/01/21 04:33:24;;;;;;;0.80;0.80;;;0.70;99.90;;;;;;5035464;27;20432;-88
2023/01/21 04:35:51;;;;;;;0.80;0.80;;;0.60;99.90;;;;;;5035125;27;20449;-89
2023/01/21 04:38:20;;;;;;;0.90;0.90;;;0.70;99.90;;;;;;5042300;27;20702;-87
2023/01/21 04:40:46;;;;;;;0.90;0.90;;;0.50;99.90;;;;;;5012502;27;20051;-88
2023/01/21 04:43:12;;;;;;;0.80;0.80;;;0.60;99.90;;;;;;5030950;27;20089;-88
2023/01/21 04:45:38;;;;;;;0.80;0.80;;;0.60;99.90;;;;;;5036022;27;20043;-88
2023/01/21 04:48:04;;;;;;;0.88;0.88;;;0.70;99.90;;;;;;5053571;27;20092;-88
2023/01/21 04:50:29;;;;;;;0.90;0.90;;;0.80;99.90;;;;;;5052178;27;20042;-89
2023/01/21 04:52:55;;;;;;;0.80;0.80;;;0.50;99.90;;;;;;5016518;27;20054;-89
2023/01/21 04:55:21;;;;;;;0.85;0.85;;;0.80;99.90;;;;;;5036020;27;20147;-87
2023/01/21 04:57:47;;;;;;;0.90;0.90;;;0.80;99.90;;;;;;5036505;28;20059;-88
2023/01/21 05:00:13;;;;;;;0.80;0.80;;;0.80;99.90;;;;;;5034354;27;20051;-88
2023/01/21 05:02:41;;;;;;;0.90;0.90;;;0.70;99.90;;;;;;5050313;27;20055;-90
2023/01/21 05:05:07;;;;;;;0.80;0.80;;;0.50;99.90;;;;;;5018711;27;20636;-89
2023/01/21 05:07:33;;;;;;;0.90;0.90;;;0.60;99.90;;;;;;5028219;27;20623;-88
2023/01/21 05:09:59;;;;;;;0.90;0.90;;;0.60;99.90;;;;;;5030451;27;20040;-88
2023/01/21 05:12:25;;;;;;;0.80;0.80;;;0.70;99.90;;;;;;5010063;27;20058;-89
2023/01/21 05:14:56;;;;;;;0.90;0.90;;;0.70;99.90;;;;;;5037752;27;20043;-89
2023/01/21 05:17:22;;;;;;;0.80;0.80;;;0.60;99.90;;;;;;5035371;27;20362;-88
2023/01/21 05:19:52;;;;;;;0.90;0.90;;;0.60;99.90;;;;;;5054154;27;20031;-88
2023/01/21 05:22:18;;;;;;;0.90;0.90;;;0.60;99.90;;;;;;5036409;28;20092;-89
2023/01/21 05:24:44;;;;;;;0.90;0.90;;;0.70;99.90;;;;;;5039668;28;20362;-88
2023/01/21 05:27:09;;;;;;;0.85;0.85;;;0.70;99.90;;;;;;5009435;28;20721;-89
2023/01/21 05:29:35;;;;;;;0.90;0.90;;;0.50;99.90;;;;;;5022026;28;20058;-88
2023/01/21 05:32:01;;;;;;;0.80;0.80;;;0.80;99.90;;;;;;5025200;28;20122;-88
2023/01/21 05:34:27;;;;;;;0.80;0.80;;;0.50;99.90;;;;;;5033735;28;20267;-88
2023/01/21 05:36:53;;;;;;;0.80;0.80;;;0.60;99.90;;;;;;5025475;28;20644;-88
2023/01/21 05:39:19;;;;;;;0.80;0.80;;;0.80;99.90;;;;;;5017218;27;20954;-87
2023/01/21 05:41:44;;;;;;;0.80;0.80;;;0.70;99.90;;;;;;5028163;27;20049;-88
2023/01/21 05:44:10;;;;;;;0.80;0.80;;;0.70;99.90;;;;;;5023660;27;20043;-88
2023/01/21 05:46:36;;;;;;;0.80;0.80;;;0.90;99.90;;;;;;5032765;27;20549;-87
2023/01/21 05:49:02;;;;;;;0.90;0.90;;;0.60;99.90;;;;;;5019686;27;20562;-89
2023/01/21 05:51:27;;;;;;;0.80;0.80;;;0.60;99.90;;;;;;5041822;27;20407;-89
2023/01/21 05:53:54;;;;;;;0.90;0.90;;;0.60;99.90;;;;;;5029578;27;20114;-88
2023/01/21 05:56:20;;;;;;;0.90;0.90;;;0.70;99.90;;;;;;5042162;27;20133;-88
2023/01/21 05:58:45;;;;;;;0.85;0.85;;;0.60;99.90;;;;;;5029537;27;20047;-88
2023/01/21 06:01:11;;;;;;;0.80;0.80;;;0.80;99.90;;;;;;5025514;27;20933;-89
2023/01/21 06:03:39;;;;;;;0.90;0.90;;;0.60;99.90;;;;;;5033996;27;20323;-89
2023/01/21 06:06:06;;;;;;;0.90;0.90;;;0.70;99.90;;;;;;5060036;27;20468;-89
2023/01/21 06:08:31;;;;;;;0.80;0.80;;;0.70;99.90;;;;;;5032656;27;20042;-89
2023/01/21 06:10:57;;;;;;;0.90;0.90;;;0.60;99.90;;;;;;5033473;27;20447;-89
2023/01/21 06:13:23;;;;;;;0.80;0.80;;;0.60;99.90;;;;;;5039606;27;20046;-88
2023/01/21 06:15:53;;;;;;;0.80;0.80;;;0.60;99.90;;;;;;5031457;27;20550;-88
2023/01/21 06:18:22;;;;;;;0.90;0.90;;;0.90;99.90;;;;;;5053823;27;20554;-89
2023/01/21 06:20:51;;;;;;;0.90;0.90;;;0.70;99.90;;;;;;5045885;27;20433;-89
2023/01/21 06:23:17;;;;;;;0.90;0.90;;;0.90;99.90;;;;;;5062073;27;20039;-89
2023/01/21 06:25:43;;;;;;;0.90;0.90;;;0.90;99.90;;;;;;5044886;27;21540;-89
2023/01/21 06:28:15;;;;;;;0.80;0.80;;;0.80;99.90;;;;;;5024072;27;20419;-89
2023/01/21 06:30:41;;;;;;;0.80;0.80;;;0.70;99.90;;;;;;5039073;27;20563;-89
2023/01/21 06:33:09;;;;;;;0.80;0.80;;;0.90;99.90;;;;;;5047899;27;20054;-89
2023/01/21 06:35:36;;;;;;;0.80;0.80;;;0.90;99.90;;;;;;5031457;27;20881;-89
2023/01/21 06:38:02;;;;;;;0.90;0.90;;;0.70;99.90;;;;;;5019645;27;20070;-90
2023/01/21 06:40:27;;;;;;;0.80;0.80;;;0.90;99.90;;;;;;5027721;27;20398;-89
2023/01/21 06:42:56;;;;;;;0.90;0.90;;;0.90;99.90;;;;;;5036234;27;20188;-89
2023/01/21 06:45:21;;;;;;;0.80;0.80;;;0.90;99.90;;;;;;5044284;27;20071;-89
2023/01/21 06:47:50;;;;;;;0.90;0.90;;;0.70;99.90;;;;;;5038501;27;20054;-89
2023/01/21 06:50:20;;;;;;;0.90;0.90;;;0.80;99.90;;;;;;5032481;27;20480;-89
2023/01/21 06:52:47;;;;;;;0.90;0.90;;;0.80;99.90;;;;;;5046392;27;20715;-89
2023/01/21 06:55:14;;;;;;;0.80;0.80;;;0.90;99.90;;;;;;5044378;27;20060;-89
2023/01/21 06:57:40;;;;;;;0.80;0.80;;;0.80;99.90;;;;;;5048608;27;20137;-89
2023/01/21 07:00:07;;;;;;;0.80;0.80;;;0.90;99.90;;;;;;5061235;27;20130;-89
2023/01/21 07:02:35;;;;;;;0.80;0.80;;;0.80;99.90;;;;;;5068597;27;20042;-89
2023/01/21 07:05:02;;;;;;;0.90;0.90;;;1.00;99.90;;;;;;5052254;27;20047;-88
2023/01/21 07:07:28;;;;;;;0.90;0.90;;;0.80;99.90;;;;;;5046471;27;20969;-89
2023/01/21 07:09:54;;;;;;;0.90;0.90;;;0.80;99.90;;;;;;5040869;27;20035;-89
2023/01/21 07:12:20;;;;;;;0.80;0.80;;;0.90;99.90;;;;;;5037765;27;20246;-89
2023/01/21 07:14:48;;;;;;;0.90;0.90;;;0.90;99.90;;;;;;5044287;27;20172;-91
2023/01/21 07:17:17;;;;;;;0.80;0.80;;;0.80;99.90;;;;;;5058627;27;20046;-87
2023/01/21 07:19:45;;;;;;;0.80;0.80;;;0.80;99.90;;;;;;5029829;27;20209;-89
2023/01/21 07:22:11;;;;;;;0.80;0.80;;;0.70;99.90;;;;;;5030622;27;20046;-88
2023/01/21 07:24:37;;;;;;;0.80;0.80;;;0.80;99.90;;;;;;5064847;27;20532;-88
2023/01/21 07:27:04;;;;;;;0.90;0.90;;;0.90;99.90;;;;;;5035161;27;20384;-87
2023/01/21 07:29:30;;;;;;;0.80;0.80;;;0.90;99.90;;;;;;5046606;27;20043;-87
2023/01/21 07:31:56;;;;;;;0.80;0.80;;;0.70;99.90;;;;;;5035393;27;20348;-88
2023/01/21 07:34:22;;;;;;;0.90;0.90;;;0.70;99.90;;;;;;5064912;27;20046;-90
2023/01/21 07:36:47;;;;;;;0.80;0.80;;;0.70;99.90;;;;;;5066597;27;20050;-88
2023/01/21 07:39:13;;;;;;;0.90;0.90;;;1.00;99.90;;;;;;5055798;27;20153;-89
2023/01/21 07:41:39;;;;;;;0.90;0.90;;;0.80;99.90;;;;;;5044856;27;20149;-88
2023/01/21 07:44:08;;;;;;;0.90;0.90;;;1.00;99.90;;;;;;5044165;27;20773;-88
2023/01/21 07:46:36;;;;;;;0.90;0.90;;;0.80;99.90;;;;;;5042774;27;20558;-89
2023/01/21 07:49:04;;;;;;;0.90;0.90;;;1.00;99.90;;;;;;5034063;27;20055;-88
2023/01/21 07:51:37;;;;;;;0.80;0.80;;;0.90;99.90;;;;;;5047335;27;20042;-89
2023/01/21 07:54:06;;;;;;;0.80;0.80;;;1.10;99.90;;;;;;5060983;27;20070;-87
2023/01/21 07:56:32;;;;;;;0.90;0.90;;;0.80;99.90;;;;;;5053792;27;20054;-90
2023/01/21 07:58:58;;;;;;;0.90;0.90;;;1.00;99.90;;;;;;5024147;27;20443;-89
2023/01/21 08:01:27;;;;;;;0.80;0.80;;;0.90;99.90;;;;;;5042524;27;20428;-87
2023/01/21 08:03:53;;;;;;;0.80;0.80;;;1.20;99.90;;;;;;5039928;27;20092;-87
2023/01/21 08:06:19;;;;;;;0.80;0.80;;;1.00;99.90;;;;;;5012782;27;20039;-87
2023/01/21 08:08:44;;;;;;;0.80;0.80;;;1.20;99.90;;;;;;5042470;27;20038;-89
2023/01/21 08:11:10;;;;;;;0.80;0.80;;;0.90;99.90;;;;;;5050401;27;20046;-89
2023/01/21 08:13:36;;;;;;;0.80;0.80;;;0.90;99.90;;;;;;5040677;27;20047;-87
2023/01/21 08:16:01;;;;;;;0.80;0.80;;;1.00;99.90;;;;;;5050058;27;20047;-88
2023/01/21 08:18:32;;;;;;;0.80;0.80;;;1.10;99.90;;;;;;5037913;27;20523;-88
2023/01/21 08:20:58;;;;;;;0.80;0.80;;;1.10;99.90;;;;;;5071186;27;20039;-88
2023/01/21 08:23:30;;;;;;;0.80;0.80;;;1.20;99.90;;;;;;5058389;27;20432;-88
2023/01/21 08:26:01;;;;;;;0.80;0.80;;;1.20;99.90;;;;;;5053383;27;20465;-87
2023/01/21 08:28:27;;;;;;;0.80;0.80;;;1.20;99.90;;;;;;5073822;27;20077;-87
2023/01/21 08:30:52;;;;;;;0.80;0.80;;;1.10;99.90;;;;;;5056492;27;20338;-90
2023/01/21 08:33:18;;;;;;;0.90;0.90;;;1.30;99.90;;;;;;5045301;27;20307;-88
2023/01/21 08:35:44;;;;;;;0.80;0.80;;;1.30;99.90;;;;;;5056532;27;20489;-87
2023/01/21 08:38:13;;;;;;;0.80;0.80;;;1.30;99.90;;;;;;5016163;27;20047;-88
2023/01/21 08:40:38;;;;;;;0.90;0.90;;;1.30;99.90;;;;;;5052565;27;20043;-87
2023/01/21 08:43:07;;;;;;;0.90;0.90;;;1.30;99.90;;;;;;5048353;27;20599;-87
2023/01/21 08:45:33;;;;;;;0.80;0.80;;;1.20;99.90;;;;;;5050865;27;20051;-88
2023/01/21 08:48:02;;;;;;;0.80;0.80;;;1.20;99.90;;;;;;5050823;27;20047;-88
2023/01/21 08:50:28;;;;;;;0.80;0.80;;;1.20;99.90;;;;;;5046905;27;20733;-88
2023/01/21 08:52:55;;;;;;;0.80;0.80;;;1.30;99.90;;;;;;5037735;27;20054;-89
2023/01/21 08:55:25;;;;;;;0.80;0.80;;;1.30;99.90;;;;;;5053835;27;20042;-88
2023/01/21 08:57:52;;;;;;;0.80;0.80;;;1.40;99.90;;;;;;5028683;27;20046;-87
2023/01/21 09:00:19;;;;;;;0.85;0.85;;;1.40;99.90;;;;;;5012706;27;20129;-88
2023/01/21 09:02:48;;;;;;;0.80;0.80;;;1.40;99.90;;;;;;5041576;27;20042;-87
2023/01/21 09:05:13;;;;;;;0.80;0.80;;;1.30;99.90;;;;;;5033231;27;20407;-88
2023/01/21 09:07:45;;;;;;;0.90;0.90;;;1.50;99.90;;;;;;5027829;27;20605;-88
2023/01/21 09:10:59;;;;;;;0.80;0.80;;;1.30;99.90;;;;;;5027555;27;20050;-87
2023/01/21 09:13:08;;;;;;;0.80;0.80;;;1.40;99.90;;;;;;5043132;27;20430;-86
2023/01/21 09:15:39;;;;;;;0.80;0.80;;;1.40;99.90;;;;;;5039640;27;20274;-87
2023/01/21 09:18:05;;;;;;;0.80;0.80;;;1.50;99.90;;;;;;5030540;27;20381;-87
2023/01/21 09:20:31;;;;;;;0.90;0.90;;;1.50;99.90;;;;;;5028359;27;20679;-89
2023/01/21 09:23:22;;;;;;;0.80;0.80;;;1.40;99.90;;;;;;5023565;27;20047;-89
2023/01/21 09:25:50;;;;;;;0.80;0.80;;;1.40;99.90;;;;;;5041883;27;20918;-88
2023/01/21 09:28:17;;;;;;;0.90;0.90;;;1.50;99.90;;;;;;5023106;27;20129;-88
2023/01/21 09:30:42;;;;;;;0.90;0.90;;;1.40;99.90;;;;;;5043970;27;20046;-86
2023/01/21 09:33:08;;;;;;;0.80;0.80;;;1.40;99.90;;;;;;5030730;27;20078;-88
2023/01/21 09:35:34;;;;;;;0.90;0.90;;;1.50;99.90;;;;;;5033348;27;20514;-86
2023/01/21 09:37:59;;;;;;;0.90;0.90;;;1.40;99.90;;;;;;5028776;27;20132;-87
2023/01/21 09:40:25;;;;;;;0.80;0.80;;;1.40;99.90;;;;;;5027719;27;20247;-87
2023/01/21 09:42:51;;;;;;;0.80;0.80;;;1.50;99.90;;;;;;5041448;27;20137;-87
2023/01/21 09:45:18;;;;;;;0.80;0.80;;;1.50;99.90;;;;;;5033543;27;20554;-87
2023/01/21 09:47:46;;;;;;;0.80;0.80;;;1.60;99.90;;;;;;5033521;27;20139;-87
2023/01/21 09:50:22;;;;;;;0.90;0.90;;;1.70;99.90;;;;;;5030026;27;20038;-87
2023/01/21 09:52:53;;;;;;;0.80;0.80;;;1.80;99.90;;;;;;5052376;27;20640;-87
2023/01/21 09:55:33;;;;;;;0.80;0.80;;;1.70;99.90;;;;;;5052013;27;20587;-89
2023/01/21 09:58:07;;;;;;;0.80;0.80;;;1.70;99.90;;;;;;5050397;27;20043;-89
2023/01/21 10:00:45;;;;;;;0.80;0.80;;;1.90;99.90;;;;;;5058855;27;20087;-88
2023/01/21 10:03:32;;;;;;;0.85;0.85;;;1.80;99.90;;;;;;5055763;27;20047;-88
2023/01/21 10:06:29;;;;;;;0.85;0.85;;;1.90;99.90;;;;;;5039514;27;20046;-87
2023/01/21 10:09:20;;;;;;;0.80;0.80;;;2.10;99.90;;;;;;5037123;27;20124;-87
2023/01/21 10:11:45;;;;;;;0.80;0.80;;;2.10;99.90;;;;;;5050224;27;20038;-87
2023/01/21 10:14:23;;;;;;;0.80;0.80;;;2.00;99.90;;;;;;5034300;27;20046;-87
2023/01/21 10:17:14;;;;;;;0.80;0.80;;;2.10;99.90;;;;;;5027858;27;20043;-88
2023/01/21 10:20:15;;;;;;;0.88;0.88;;;2.20;99.90;;;;;;5039086;27;20050;-89
2023/01/21 10:22:51;;;;;;;0.80;0.80;;;2.10;99.90;;;;;;5035583;27;20050;-87
2023/01/21 10:25:31;;;;;;;0.80;0.80;;;2.20;99.90;;;;;;5038548;27;20359;-88
2023/01/21 10:28:17;;;;;;;0.80;0.80;;;2.20;99.90;;;;;;5038072;27;20099;-89
2023/01/21 10:30:47;;;;;;;0.85;0.85;;;2.20;99.90;;;;;;5044013;27;20523;-89
2023/01/21 10:33:32;;;;;;;0.90;0.90;;;2.20;99.90;;;;;;5052592;27;20043;-91
2023/01/21 10:36:13;;;;;;;0.90;0.90;;;2.30;99.90;;;;;;5050210;27;20619;-87
2023/01/21 10:38:42;;;;;;;0.80;0.80;;;2.40;99.90;;;;;;5043414;27;20519;-88
2023/01/21 10:41:27;;;;;;;0.80;0.80;;;2.30;99.90;;;;;;5069118;27;20067;-89
2023/01/21 10:44:27;;;;;;;0.80;0.80;;;2.40;99.90;;;;;;5065657;27;20130;-89
2023/01/21 10:47:07;;;;;;;0.80;0.80;;;2.40;99.90;;;;;;5040313;27;20494;-88
2023/01/21 10:50:03;;;;;;;0.90;0.90;;;2.30;99.90;;;;;;5042514;27;20287;-88
2023/01/21 10:52:49;;;;;;;0.82;0.82;;;2.20;99.90;;;;;;5040526;27;20548;-88
2023/01/21 10:55:24;;;;;;;0.82;0.82;;;2.40;99.90;;;;;;5066420;27;20117;-87
2023/01/21 10:58:04;;;;;;;0.85;0.85;;;2.40;99.90;;;;;;5056308;27;20065;-88
2023/01/21 11:00:39;;;;;;;0.90;0.90;;;2.50;99.90;;;;;;5044982;27;20386;-87
2023/01/21 11:03:33;;;;;;;0.80;0.80;;;2.60;99.90;;;;;;5053832;27;20231;-87
2023/01/21 11:06:03;;;;;;;0.80;0.80;;;2.50;99.90;;;;;;5062662;27;20096;-88
2023/01/21 11:08:29;;;;;;;0.80;0.80;;;2.60;99.90;;;;;;5044946;27;20073;-88
2023/01/21 11:10:56;;;;;;;0.80;0.80;;;2.70;99.90;;;;;;5041511;27;20045;-88
2023/01/21 11:13:25;;;;;;;0.80;0.80;;;2.50;99.90;;;;;;5059263;27;20206;-87
2023/01/21 11:15:56;;;;;;;0.80;0.80;;;2.60;99.90;;;;;;5025957;27;20047;-87
2023/01/21 11:18:27;;;;;;;0.80;0.80;;;2.50;99.90;;;;;;5034588;27;20081;-88
2023/01/21 11:20:57;;;;;;;0.80;0.80;;;2.60;99.90;;;;;;5043015;27;20610;-90
2023/01/21 11:23:38;;;;;;;0.80;0.80;;;2.80;99.90;;;;;;5040016;27;20390;-89
2023/01/21 11:26:26;;;;;;;0.80;0.80;;;2.60;99.90;;;;;;5042629;27;20039;-89
2023/01/21 11:29:17;;;;;;;0.80;0.80;;;2.90;99.90;;;;;;5062637;27;21539;-89
2023/01/21 11:31:47;;;;;;;0.80;0.80;;;3.00;99.90;;;;;;5060887;27;21270;-90
2023/01/21 11:34:16;;;;;;;0.80;0.80;;;2.70;99.90;;;;;;5048897;27;20043;-88
2023/01/21 11:36:57;;;;;;;0.80;0.80;;;2.90;99.90;;;;;;5043013;27;20150;-87
2023/01/21 11:39:34;;;;;;;0.80;0.80;;;2.90;99.90;;;;;;5040792;27;20043;-89
2023/01/21 11:42:15;;;;;;;0.80;0.80;;;3.00;99.90;;;;;;5042320;27;20491;-87
2023/01/21 11:45:00;;;;;;;0.80;0.80;;;3.10;99.90;;;;;;5051677;27;20396;-88
2023/01/21 11:47:35;;;;;;;0.80;0.80;;;3.10;99.90;;;;;;5056929;27;20141;-86
2023/01/21 11:50:12;;;;;;;0.80;0.80;;;3.20;99.90;;;;;;5042056;27;20038;-87
2023/01/21 11:52:38;;;;;;;0.80;0.80;;;3.10;99.90;;;;;;5064812;27;20457;-89
2023/01/21 11:55:20;;;;;;;0.80;0.80;;;3.20;99.90;;;;;;5060757;27;20035;-88
2023/01/21 11:57:56;;;;;;;0.80;0.80;;;3.20;99.90;;;;;;5057436;27;20049;-89
2023/01/21 12:00:24;;;;;;;0.82;0.82;;;3.40;99.90;;;;;;5046032;27;20046;-88
2023/01/21 12:02:55;;;;;;;0.80;0.80;;;3.40;99.90;;;;;;5061286;27;20043;-88
2023/01/21 12:05:30;;;;;;;0.80;0.80;;;3.80;99.90;;;;;;5058024;27;20043;-89
2023/01/21 12:07:57;;;;;;;0.70;0.70;;;4.00;99.90;;;;;;5045112;27;20047;-90
2023/01/21 12:10:28;;;;;;;0.70;0.70;;;4.00;99.90;;;;;;5041164;27;20067;-88
2023/01/21 12:13:19;;;;;;;0.90;0.90;;;3.80;99.90;;;;;;5047593;27;20038;-89
2023/01/21 12:15:54;;;;;;;0.75;0.75;;;3.80;99.90;;;;;;5057841;27;20046;-89
2023/01/21 12:18:57;;;;;;;0.80;0.80;;;3.80;99.90;;;;;;5049989;27;20039;-90
2023/01/21 12:21:39;;;;;;;0.70;0.70;;;3.90;99.90;;;;;;5050910;27;20392;-90
2023/01/21 12:24:28;;;;;;;0.80;0.80;;;3.80;99.90;;;;;;5041313;27;20142;-88
2023/01/21 12:27:28;;;;;;;0.80;0.80;;;4.00;99.90;;;;;;5054763;27;20395;-90
2023/01/21 12:30:31;;;;;;;0.80;0.80;;;3.90;99.90;;;;;;5048881;27;20883;-89
2023/01/21 12:33:06;;;;;;;0.70;0.70;;;4.00;99.90;;;;;;5057356;27;21642;-90
2023/01/21 12:35:45;;;;;;;0.80;0.80;;;3.90;99.90;;;;;;5048291;27;20549;-88
2023/01/21 12:38:19;;;;;;;0.80;0.80;;;3.90;99.90;;;;;;5014368;27;20113;-89
2023/01/21 12:41:22;;;;;;;0.80;0.80;;;4.00;99.90;;;;;;5053751;27;20393;-90
2023/01/21 12:43:55;;;;;;;0.70;0.70;;;4.10;99.90;;;;;;5031895;27;20055;-89
2023/01/21 12:46:31;;;;;;;0.70;0.70;;;3.90;99.90;;;;;;5041029;27;20049;-90
2023/01/21 12:49:09;;;;;;;0.70;0.70;;;3.90;99.90;;;;;;5049470;27;20659;-90
2023/01/21 12:51:50;;;;;;;0.70;0.70;;;4.00;99.90;;;;;;5042803;27;20070;-89
2023/01/21 12:54:25;;;;;;;0.70;0.70;;;4.10;99.90;;;;;;5040186;27;20894;-91
2023/01/21 12:56:53;;;;;;;0.70;0.70;;;4.10;99.90;;;;;;5046142;27;20055;-88
2023/01/21 12:59:55;;;;;;;0.70;0.70;;;4.10;99.90;;;;;;5037604;27;20796;-89
2023/01/21 13:02:36;;;;;;;0.80;0.80;;;4.20;99.90;;;;;;5039669;27;20666;-89
2023/01/21 13:05:11;;;;;;;0.77;0.77;;;4.20;99.90;;;;;;5042881;27;20042;-90
2023/01/21 13:08:01;;;;;;;0.75;0.75;;;4.20;99.90;;;;;;5047411;27;20270;-90
2023/01/21 13:10:41;;;;;;;0.70;0.70;;;4.10;99.90;;;;;;5057336;27;20035;-89
2023/01/21 13:13:20;;;;;;;0.70;0.70;;;4.20;99.90;;;;;;5044974;27;20856;-89
2023/01/21 13:15:51;;;;;;;2.97;2.88;;;4.30;99.90;;;;;;5048781;27;20054;-90
2023/01/21 13:18:38;;;;;;;0.70;0.70;;;4.10;99.90;;;;;;5041481;27;20075;-90
2023/01/21 13:21:22;;;;;;;0.80;0.80;;;4.30;99.90;;;;;;5077519;27;20155;-91
2023/01/21 13:23:52;;;;;;;;;;;4.30;99.90;;;;;;5046771;27;20045;-90